Homeworth, Ohio
Current Conditions -  °F | °C
As of 2:51 PM on Thursday 20 Nov 2014 (Local Time) from KCAK Reporting Station
Broken Clouds Broken Clouds  
Wind Chill: 13°   Ceiling: 4100
Heat Index: 26°   Visibility: 10mi
Dew Point: 10°   Wind: 18mph
Humidity: 51%   Direction: 250°WSW
Pressure: 29.98"   Gusts: 29mph
Location:  40.84°N, 81.07°W
Report Text: KCAK 201951Z 25016G25KT 10SM BKN041 M03/M12 A2998 RMK AO2 PK WND 23029/1934 SLP167 T10331122 $
Loading
Personal Weather Stations






























Interactive Weather Map New forecast layout! Learn more

10-Day Weather Forecast

Advertisements
Track Severe Weather on mobile